Time;durP1;ratioP1;P1;durP2;ratioP2;P2;SDS_P1;SDS_P2;PMS_P1;PMS_P2;Temp;Humidity;BMP_temperature;BMP_pressure;BME280_temperature;BME280_humidity;BME280_pressure;Samples;Min_cycle;Max_cycle;Signal;HPM_P1;HPM_P2
2022/07/05 00:00:37;;;;;;;7.60;2.45;;;;;;;26.34;46.00;99728.13;7738411;32;37830;-74
2022/07/05 00:04:53;;;;;;;6.32;2.40;;;;;;;26.28;46.25;99738.00;7738898;32;36586;-75
2022/07/05 00:09:09;;;;;;;6.90;2.47;;;;;;;26.20;46.49;99735.13;7738468;32;37460;-75
2022/07/05 00:13:25;;;;;;;10.32;2.00;;;;;;;26.30;46.54;99741.22;7738437;32;40483;-74
2022/07/05 00:17:41;;;;;;;5.62;2.45;;;;;;;26.42;46.37;99735.38;7738979;32;37683;-74
2022/07/05 00:21:57;;;;;;;5.00;2.45;;;;;;;26.46;46.43;99733.44;7738351;32;37564;-75
2022/07/05 00:26:13;;;;;;;12.13;2.42;;;;;;;26.59;46.11;99728.41;7748929;32;39309;-76
2022/07/05 00:30:29;;;;;;;7.00;2.25;;;;;;;26.59;46.54;99729.19;7764855;32;40938;-75
2022/07/05 00:34:45;;;;;;;10.38;2.35;;;;;;;26.40;46.83;99713.41;7763412;32;38034;-75
2022/07/05 00:39:03;;;;;;;6.95;2.20;;;;;;;26.48;46.27;99708.72;7737989;32;37887;-73
2022/07/05 00:43:19;;;;;;;5.05;2.37;;;;;;;26.56;45.91;99696.44;7737998;32;39662;-75
2022/07/05 00:47:35;;;;;;;6.30;2.35;;;;;;;26.65;45.79;99700.91;7756469;32;39595;-76
2022/07/05 00:51:51;;;;;;;4.37;2.05;;;;;;;26.63;46.65;99694.91;7764795;32;37642;-73
2022/07/05 00:56:27;;;;;;;4.00;2.33;;;;;;;26.41;47.25;99692.66;7761761;32;37789;-74
2022/07/05 01:00:43;;;;;;;3.92;2.20;;;;;;;25.78;48.72;99696.22;7764645;32;39065;-74
2022/07/05 01:05:00;;;;;;;4.90;2.25;;;;;;;26.06;47.80;99695.84;7761890;32;40706;-75
2022/07/05 01:09:18;;;;;;;4.35;1.92;;;;;;;25.80;49.14;99703.03;7737462;32;37938;-74
2022/07/05 01:13:35;;;;;;;2.47;1.98;;;;;;;25.83;48.98;99713.44;7738141;32;37009;-74
2022/07/05 01:17:51;;;;;;;10.45;1.80;;;;;;;26.10;48.45;99707.84;7737731;32;37185;-75
2022/07/05 01:22:19;;;;;;;5.20;2.33;;;;;;;26.12;48.26;99705.47;7735950;32;40898;-74
2022/07/05 01:26:36;;;;;;;9.05;2.20;;;;;;;26.11;47.61;99697.47;7759913;32;38646;-75
2022/07/05 01:30:52;;;;;;;3.35;1.80;;;;;;;25.99;48.15;99701.31;7763810;32;36916;-74
2022/07/05 01:35:10;;;;;;;3.70;2.03;;;;;;;26.01;48.25;99693.38;7750004;32;39294;-74
2022/07/05 01:39:26;;;;;;;5.30;2.00;;;;;;;26.16;47.68;99695.16;7737570;32;39939;-75
2022/07/05 01:43:42;;;;;;;3.42;1.95;;;;;;;26.11;47.78;99687.09;7740597;32;37849;-77
2022/07/05 01:47:59;;;;;;;4.72;2.25;;;;;;;26.27;47.37;99688.87;7763575;32;37746;-74
2022/07/05 01:52:16;;;;;;;2.90;1.87;;;;;;;26.27;47.21;99680.50;7749830;32;40194;-74
2022/07/05 01:56:32;;;;;;;5.22;2.03;;;;;;;26.44;46.82;99677.12;7740856;32;39989;-74
2022/07/05 02:00:50;;;;;;;3.25;1.58;;;;;;;26.33;46.92;99681.78;7738205;32;37948;-75
2022/07/05 02:05:07;;;;;;;3.60;1.90;;;;;;;26.41;46.64;99675.09;7740839;32;36837;-75
2022/07/05 02:09:23;;;;;;;3.60;2.10;;;;;;;26.29;46.67;99678.16;7739988;32;39028;-75
2022/07/05 02:13:39;;;;;;;3.62;2.00;;;;;;;26.20;46.82;99679.25;7742907;32;40884;-75
2022/07/05 02:17:55;;;;;;;2.62;1.90;;;;;;;26.04;46.89;99671.09;7766712;32;37978;-75
2022/07/05 02:22:12;;;;;;;7.03;2.00;;;;;;;26.18;47.32;99680.81;7761962;32;37043;-74
2022/07/05 02:26:28;;;;;;;2.62;1.85;;;;;;;25.94;47.60;99682.91;7739687;32;40082;-75
2022/07/05 02:30:45;;;;;;;5.47;2.12;;;;;;;25.83;48.01;99670.75;7739415;32;39995;-75
2022/07/05 02:35:02;;;;;;;3.37;2.05;;;;;;;25.85;48.04;99660.81;7761683;32;39527;-74
2022/07/05 02:39:18;;;;;;;5.37;2.20;;;;;;;26.01;47.81;99668.25;7766463;32;36894;-74
2022/07/05 02:43:34;;;;;;;3.42;1.95;;;;;;;26.05;47.70;99655.12;7764281;32;39186;-74
2022/07/05 02:47:50;;;;;;;4.85;1.85;;;;;;;26.18;47.02;99655.66;7766463;32;40011;-75
2022/07/05 02:52:06;;;;;;;2.62;1.80;;;;;;;25.67;47.99;99656.97;7762872;32;37984;-74
2022/07/05 02:56:22;;;;;;;3.20;1.98;;;;;;;25.88;47.27;99666.84;7739305;32;36943;-75
2022/07/05 03:00:39;;;;;;;4.53;1.83;;;;;;;25.60;48.49;99670.84;7739213;32;39138;-75
2022/07/05 03:04:54;;;;;;;4.43;2.00;;;;;;;25.80;47.96;99663.94;7760076;32;39914;-75
2022/07/05 03:09:10;;;;;;;4.53;1.90;;;;;;;25.74;48.00;99667.44;7766035;32;38605;-75
2022/07/05 03:13:26;;;;;;;4.45;2.20;;;;;;;25.55;48.48;99658.00;7754464;32;36882;-75
2022/07/05 03:17:43;;;;;;;4.57;2.00;;;;;;;25.41;48.79;99664.19;7739054;32;39974;-75
2022/07/05 03:21:59;;;;;;;3.08;1.90;;;;;;;25.23;49.06;99666.69;7740266;32;41161;-75
2022/07/05 03:26:15;;;;;;;5.57;2.30;;;;;;;25.53;48.32;99667.94;7765878;32;38591;-74
2022/07/05 03:30:31;;;;;;;4.50;2.08;;;;;;;25.48;48.97;99678.25;7762772;32;38277;-75
2022/07/05 03:34:47;;;;;;;3.37;2.00;;;;;;;25.68;48.51;99678.12;7738911;32;38872;-75
2022/07/05 03:39:03;;;;;;;3.92;1.98;;;;;;;25.73;47.96;99690.94;7738743;32;39537;-75
2022/07/05 03:43:19;;;;;;;5.50;2.00;;;;;;;25.33;49.05;99700.72;7758656;32;37580;-75
2022/07/05 03:47:35;;;;;;;4.47;2.30;;;;;;;25.38;48.33;99704.00;7765925;32;37502;-75
2022/07/05 03:51:51;;;;;;;3.50;2.00;;;;;;;25.43;48.13;99698.09;7764298;32;39026;-75
2022/07/05 03:56:07;;;;;;;3.92;2.00;;;;;;;25.70;47.23;99695.31;7765646;32;39763;-76
2022/07/05 04:00:23;;;;;;;4.22;2.20;;;;;;;25.73;47.22;99699.31;7763658;32;38613;-77
2022/07/05 04:04:39;;;;;;;2.85;2.05;;;;;;;25.84;47.29;99706.69;7738592;32;36713;-77
2022/07/05 04:08:55;;;;;;;2.55;1.80;;;;;;;25.74;47.36;99712.91;7738603;32;39231;-76
2022/07/05 04:13:11;;;;;;;4.22;2.20;;;;;;;25.83;47.08;99705.06;7747485;32;39716;-77
2022/07/05 04:17:29;;;;;;;3.62;1.73;;;;;;;25.86;47.23;99698.72;7738289;32;38470;-76
2022/07/05 04:21:45;;;;;;;9.73;2.17;;;;;;;26.01;46.87;99701.75;7747157;32;38058;-77
2022/07/05 04:26:01;;;;;;;2.70;1.70;;;;;;;26.00;46.66;99705.72;7765268;32;40376;-76
2022/07/05 04:30:19;;;;;;;2.25;1.83;;;;;;;25.83;47.32;99713.44;7739788;32;40964;-76
2022/07/05 04:34:35;;;;;;;3.80;1.90;;;;;;;25.82;47.30;99719.41;7738209;32;37672;-76
2022/07/05 04:38:51;;;;;;;2.78;2.00;;;;;;;26.02;46.86;99715.31;7738793;32;37539;-76
2022/07/05 04:43:08;;;;;;;5.20;1.92;;;;;;;25.85;46.98;99718.63;7737869;32;38931;-76
2022/07/05 04:47:25;;;;;;;3.62;2.12;;;;;;;25.67;47.38;99724.78;7749402;32;40665;-76
2022/07/05 04:51:41;;;;;;;4.55;1.87;;;;;;;25.83;46.95;99719.00;7763630;32;37702;-76
2022/07/05 04:56:02;;;;;;;2.65;2.05;;;;;;;25.83;46.92;99715.44;7758367;32;37680;-75
2022/07/05 05:00:18;;;;;;;7.15;1.80;;;;;;;25.39;47.78;99713.97;7737247;32;39262;-73
2022/07/05 05:04:34;;;;;;;5.72;2.00;;;;;;;25.43;47.48;99709.25;7757884;32;40882;-74
2022/07/05 05:08:50;;;;;;;8.05;2.00;;;;;;;25.74;46.96;99707.31;7744235;32;38597;-75
2022/07/05 05:13:06;;;;;;;2.85;1.90;;;;;;;25.75;47.11;99720.13;7761807;32;36896;-74
2022/07/05 05:17:22;;;;;;;4.22;2.22;;;;;;;25.62;47.56;99721.50;7762530;32;39866;-75
2022/07/05 05:21:38;;;;;;;3.55;2.08;;;;;;;25.30;48.95;99727.37;7763297;32;40789;-75
2022/07/05 05:25:54;;;;;;;3.80;1.98;;;;;;;25.16;50.10;99724.31;7758449;32;37951;-74
2022/07/05 05:30:11;;;;;;;8.32;2.00;;;;;;;25.51;49.54;99720.53;7736583;32;35648;-74
2022/07/05 05:34:27;;;;;;;3.35;1.70;;;;;;;25.40;50.00;99723.94;7738109;32;39150;-74
2022/07/05 05:38:43;;;;;;;5.43;2.25;;;;;;;25.37;50.95;99721.94;7749777;32;40708;-72
2022/07/05 05:43:05;;;;;;;2.85;2.20;;;;;;;25.50;52.15;99702.97;7766041;32;38729;-72
2022/07/05 05:47:21;;;;;;;5.45;2.20;;;;;;;25.34;52.28;99694.75;7765851;32;37020;-72
2022/07/05 05:51:38;;;;;;;5.65;2.42;;;;;;;24.84;54.58;99716.19;7751678;32;40219;-72
2022/07/05 05:55:54;;;;;;;4.47;2.20;;;;;;;24.93;54.31;99720.34;7764545;32;40872;-73
2022/07/05 06:00:11;;;;;;;7.65;2.30;;;;;;;24.00;57.84;99729.59;7766099;32;37972;-73
2022/07/05 06:04:27;;;;;;;6.47;2.60;;;;;;;24.74;56.10;99739.91;7765912;32;36712;-73
2022/07/05 06:08:43;;;;;;;5.15;2.47;;;;;;;24.09;58.31;99746.88;7765142;32;39909;-74
2022/07/05 06:13:01;;;;;;;4.85;2.47;;;;;;;23.81;59.09;99766.53;7766106;32;40562;-73
2022/07/05 06:17:18;;;;;;;2.33;2.08;;;;;;;23.78;59.10;99776.41;7765354;32;38354;-74
2022/07/05 06:21:34;;;;;;;4.53;2.40;;;;;;;24.05;57.89;99787.78;7766406;32;37050;-73
2022/07/05 06:25:50;;;;;;;3.70;2.42;;;;;;;24.09;57.05;99815.69;7763159;32;39233;-73
2022/07/05 06:30:07;;;;;;;5.07;2.30;;;;;;;24.30;55.94;99807.84;7739387;32;39946;-73
2022/07/05 06:34:23;;;;;;;3.03;2.15;;;;;;;23.87;56.55;99812.44;7739365;32;37982;-74
2022/07/05 06:38:39;;;;;;;4.07;2.20;;;;;;;23.56;57.24;99813.22;7760154;32;37020;-73
2022/07/05 06:42:58;;;;;;;4.53;2.20;;;;;;;23.54;57.06;99808.03;7766729;32;37548;-73
2022/07/05 06:47:16;;;;;;;3.87;2.20;;;;;;;23.36;57.82;99801.19;7754319;32;39853;-73
2022/07/05 06:51:32;;;;;;;8.65;2.28;;;;;;;23.70;56.95;99798.84;7766299;32;36811;-73
2022/07/05 06:55:48;;;;;;;3.12;1.70;;;;;;;23.77;55.96;99793.47;7763499;32;37701;-73
2022/07/05 07:00:11;;;;;;;5.00;2.37;;;;;;;24.28;55.20;99785.09;7750894;32;39760;-78
2022/07/05 07:04:48;;;;;;;5.12;2.10;;;;;;;24.22;54.83;99785.78;7765454;32;40384;-74
2022/07/05 07:09:24;;;;;;;2.70;1.90;;;;;;;24.38;54.31;99775.38;7739040;32;39158;-75
2022/07/05 07:13:40;;;;;;;4.55;2.22;;;;;;;24.69;53.46;99774.44;7739105;32;37169;-75
2022/07/05 07:17:57;;;;;;;4.97;2.17;;;;;;;24.30;55.07;99765.25;7739019;32;39939;-74
2022/07/05 07:22:13;;;;;;;3.20;2.08;;;;;;;24.41;54.78;99755.13;7737881;32;38823;-74
2022/07/05 07:26:29;;;;;;;11.55;2.72;;;;;;;23.49;57.74;99763.78;7738858;32;37614;-74
2022/07/05 07:30:45;;;;;;;3.45;2.08;;;;;;;23.58;58.85;99756.03;7738622;32;36618;-73
2022/07/05 07:35:01;;;;;;;3.12;2.10;;;;;;;23.58;58.73;99758.03;7738810;32;39810;-73
2022/07/05 07:39:17;;;;;;;3.33;1.95;;;;;;;23.65;57.53;99751.84;7762352;32;39751;-80
2022/07/05 07:43:33;;;;;;;3.60;1.85;;;;;;;24.11;56.50;99741.78;7765555;32;38742;-79
2022/07/05 07:47:49;;;;;;;4.05;1.70;;;;;;;24.41;53.30;99737.62;7745249;32;37743;-81
2022/07/05 07:52:05;;;;;;;2.42;1.67;;;;;;;25.06;51.95;99722.94;7734605;32;40005;-76
2022/07/05 07:56:21;;;;;;;5.20;1.80;;;;;;;24.55;52.64;99732.34;7758724;32;40737;-74
2022/07/05 08:00:37;;;;;;;2.37;1.58;;;;;;;24.57;53.33;99735.59;7738317;32;37908;-75
2022/07/05 08:04:53;;;;;;;3.37;1.70;;;;;;;24.78;52.02;99735.19;7748054;32;37672;-76
2022/07/05 08:09:10;;;;;;;2.45;1.60;;;;;;;25.05;51.26;99724.94;7765086;32;39977;-76
2022/07/05 08:13:31;;;;;;;2.20;1.73;;;;;;;25.18;50.47;99720.00;7763146;32;40871;-76
2022/07/05 08:22:23;;;;;;;2.90;1.75;;;;;;;25.67;49.38;99719.19;7730901;32;37027;-76
2022/07/05 08:26:40;;;;;;;3.70;1.65;;;;;;;25.28;50.47;99718.56;7742775;32;39305;-76
2022/07/05 08:30:56;;;;;;;3.90;2.20;;;;;;;25.60;49.26;99718.28;7764144;32;39888;-76
2022/07/05 08:35:12;;;;;;;3.97;1.58;;;;;;;25.56;50.32;99723.00;7763759;32;38749;-76
2022/07/05 08:39:29;;;;;;;4.72;2.05;;;;;;;25.77;48.13;99734.50;7755961;32;36944;-77
2022/07/05 08:43:46;;;;;;;2.87;1.87;;;;;;;24.98;51.22;99746.31;7752432;32;40447;-75
2022/07/05 08:48:03;;;;;;;3.62;2.00;;;;;;;25.15;51.19;99753.38;7764502;32;40837;-76
2022/07/05 08:52:19;;;;;;;2.47;1.90;;;;;;;24.67;52.23;99759.28;7764134;32;37570;-75
2022/07/05 08:56:37;;;;;;;2.97;1.75;;;;;;;24.71;52.13;99758.16;7762515;32;36102;-75
2022/07/05 09:01:13;;;;;;;1.98;1.65;;;;;;;24.38;53.56;99756.66;7762670;32;40417;-75
2022/07/05 09:05:30;;;;;;;2.25;2.00;;;;;;;24.43;52.80;99757.56;7763453;32;39983;-74
2022/07/05 09:09:51;;;;;;;2.87;1.92;;;;;;;24.28;53.58;99751.66;7760508;32;38796;-76
2022/07/05 09:14:19;;;;;;;3.92;2.80;;;;;;;24.77;53.37;99755.88;7740888;32;37504;-75
2022/07/05 09:18:52;;;;;;;3.33;2.17;;;;;;;25.10;53.36;99769.25;7744668;32;39850;-75
2022/07/05 09:23:08;;;;;;;4.50;2.42;;;;;;;25.17;53.50;99763.00;7763361;32;39871;-75
2022/07/05 09:27:24;;;;;;;7.40;2.47;;;;;;;24.98;53.00;99777.00;7740366;32;169323;-74
2022/07/05 09:31:42;;;;;;;4.30;2.12;;;;;;;24.73;53.62;99766.97;7740327;32;37737;-73
2022/07/05 09:35:58;;;;;;;3.20;2.53;;;;;;;24.63;54.37;99775.94;7760221;32;39230;-74
2022/07/05 09:40:16;;;;;;;4.30;2.50;;;;;;;24.82;53.92;99774.28;7761241;32;39033;-74
2022/07/05 09:44:46;;;;;;;6.03;2.75;;;;;;;25.24;53.18;99773.47;7761052;32;38060;-74
2022/07/05 09:49:03;;;;;;;4.10;2.53;;;;;;;24.54;54.52;99769.75;7744097;32;36708;-74
2022/07/05 09:53:20;;;;;;;5.55;2.95;;;;;;;24.46;55.14;99763.22;7745217;32;39297;-74
2022/07/05 09:57:41;;;;;;;4.28;2.80;;;;;;;24.36;55.74;99786.88;7751064;32;39937;-75
2022/07/05 10:01:57;;;;;;;5.80;3.12;;;;;;;24.04;57.19;99790.91;7762537;32;38670;-76
2022/07/05 10:06:13;;;;;;;6.45;3.40;;;;;;;23.65;58.63;99779.66;7747907;32;36918;-73
2022/07/05 10:10:30;;;;;;;5.50;3.47;;;;;;;23.74;59.49;99772.72;7735836;32;39710;-74
2022/07/05 10:14:46;;;;;;;7.82;3.95;;;;;;;23.43;61.10;99781.91;7735271;32;39916;-74
2022/07/05 10:19:04;;;;;;;8.40;4.32;;;;;;;22.93;64.51;99783.34;7740838;32;38048;-73
2022/07/05 10:23:21;;;;;;;9.85;4.15;;;;;;;22.51;66.63;99784.56;7764077;32;37010;-71
2022/07/05 10:27:37;;;;;;;7.05;4.00;;;;;;;22.31;67.33;99819.66;7743751;32;38943;-70
2022/07/05 10:31:53;;;;;;;6.12;3.80;;;;;;;21.92;69.60;99825.59;7755342;32;38290;-71
2022/07/05 10:36:13;;;;;;;6.22;3.75;;;;;;;21.87;68.71;99817.50;7739423;32;38636;-71
2022/07/05 10:40:31;;;;;;;7.60;3.78;;;;;;;21.89;69.35;99817.16;7755087;32;36960;-72
2022/07/05 10:44:49;;;;;;;5.03;2.70;;;;;;;22.05;67.84;99812.50;7766457;32;39961;-71
2022/07/05 10:49:14;;;;;;;4.72;2.65;;;;;;;21.70;68.03;99840.72;7741802;32;39896;-76
2022/07/05 10:54:00;;;;;;;7.43;2.78;;;;;;;21.80;68.10;99858.06;7707333;32;37947;-70
2022/07/05 10:58:16;;;;;;;5.03;2.45;;;;;;;21.56;68.14;99846.59;7692794;32;37001;-75
2022/07/05 11:02:33;;;;;;;3.30;2.17;;;;;;;21.47;68.57;99836.75;7685231;32;39474;-69
2022/07/05 11:06:49;;;;;;;3.03;2.25;;;;;;;21.49;68.32;99828.91;7706546;32;40860;-71
2022/07/05 11:11:12;;;;;;;3.58;2.20;;;;;;;21.53;68.88;99825.09;7711018;32;39547;-76
2022/07/05 11:15:29;;;;;;;5.70;2.37;;;;;;;21.72;67.24;99809.87;7723468;32;36928;-76
2022/07/05 11:20:04;;;;;;;7.07;1.95;;;;;;;21.82;67.22;99803.03;7712337;32;39293;-76
2022/07/05 11:24:28;;;;;;;4.80;2.25;;;;;;;21.62;67.35;99805.56;7693420;32;39845;-75
2022/07/05 11:28:48;;;;;;;6.03;2.12;;;;;;;21.18;68.51;99830.22;7712203;32;37835;-75
2022/07/05 11:33:28;;;;;;;2.53;1.90;;;;;;;20.99;70.11;99850.94;7712013;32;34818;-76
2022/07/05 11:38:09;;;;;;;3.60;1.90;;;;;;;21.51;68.47;99829.38;7722599;32;39964;-77
2022/07/05 11:42:50;;;;;;;5.55;2.20;;;;;;;21.57;68.12;99828.78;7711964;32;40010;-77
2022/07/05 11:47:06;;;;;;;6.07;2.70;;;;;;;21.19;69.75;99837.38;7711945;32;38591;-78
2022/07/05 11:51:22;;;;;;;4.55;2.55;;;;;;;21.25;69.97;99838.78;7711970;32;36988;-77
2022/07/05 11:55:39;;;;;;;3.67;2.42;;;;;;;21.36;70.04;99834.41;7711900;32;39948;-77
2022/07/05 11:59:55;;;;;;;5.20;2.30;;;;;;;21.34;69.26;99833.94;7711875;32;40606;-77
2022/07/05 12:04:11;;;;;;;3.67;2.15;;;;;;;21.31;68.60;99829.06;7711688;32;38551;-77
2022/07/05 12:08:27;;;;;;;6.65;2.40;;;;;;;21.48;68.61;99810.66;7723224;32;36727;-78
2022/07/05 12:12:44;;;;;;;4.12;2.40;;;;;;;21.29;69.32;99800.88;7711756;32;39037;-77
2022/07/05 12:17:16;;;;;;;3.90;2.45;;;;;;;21.28;69.46;99779.84;7711628;32;39992;-77
2022/07/05 12:21:39;;;;;;;5.82;2.90;;;;;;;21.44;69.66;99770.84;7711517;32;38410;-78
2022/07/05 12:25:58;;;;;;;3.45;2.58;;;;;;;21.47;69.63;99778.53;7711657;32;37659;-77
2022/07/05 12:30:15;;;;;;;4.60;2.50;;;;;;;21.93;68.43;99770.88;7711415;32;39178;-77
2022/07/05 12:34:31;;;;;;;3.37;2.30;;;;;;;22.07;68.95;99770.53;7711489;32;40953;-77
2022/07/05 12:38:47;;;;;;;3.45;2.10;;;;;;;21.08;70.62;99780.75;7711337;32;37949;-77
2022/07/05 12:43:12;;;;;;;3.25;2.35;;;;;;;21.44;69.82;99776.41;7710443;32;36972;-78
2022/07/05 12:47:27;;;;;;;4.37;2.60;;;;;;;21.90;68.39;99779.91;7711362;32;39270;-78
2022/07/05 12:51:45;;;;;;;5.68;2.20;;;;;;;22.23;68.24;99767.81;7722476;32;40769;-77
2022/07/05 13:00:41;;;;;;;3.42;2.30;;;;;;;21.97;67.50;99760.69;7711154;32;36636;-77
2022/07/05 13:04:57;;;;;;;3.47;2.05;;;;;;;22.41;66.09;99746.97;7710897;32;38982;-77
2022/07/05 13:09:15;;;;;;;2.92;2.10;;;;;;;22.34;65.52;99743.19;7710805;32;40745;-76
2022/07/05 13:13:31;;;;;;;2.78;2.42;;;;;;;21.92;67.94;99738.72;7710805;32;37268;-77
2022/07/05 13:17:47;;;;;;;2.28;2.03;;;;;;;21.87;67.60;99744.53;7710739;32;37503;-78
2022/07/05 13:22:04;;;;;;;5.37;2.80;;;;;;;22.09;67.26;99741.28;7710667;32;40079;-77
2022/07/05 13:26:20;;;;;;;2.28;1.85;;;;;;;22.40;66.36;99723.12;7710385;32;39932;-77
2022/07/05 13:30:36;;;;;;;4.03;2.05;;;;;;;22.15;65.96;99718.81;7710048;32;37980;-77
2022/07/05 13:34:53;;;;;;;3.30;2.17;;;;;;;22.08;66.33;99717.44;7710324;32;36918;-77
2022/07/05 13:39:09;;;;;;;2.92;2.00;;;;;;;22.36;67.50;99707.53;7710184;32;39213;-77
2022/07/05 13:43:25;;;;;;;4.65;1.95;;;;;;;22.47;65.25;99701.13;7708723;32;40721;-76
2022/07/05 13:47:41;;;;;;;2.90;2.00;;;;;;;22.48;65.97;99699.94;7709871;32;38673;-77
2022/07/05 13:52:00;;;;;;;2.10;1.90;;;;;;;22.54;64.97;99689.37;7710123;32;36952;-77
2022/07/05 13:56:16;;;;;;;4.32;2.10;;;;;;;22.66;65.97;99681.00;7712433;32;39230;-77
2022/07/05 14:00:32;;;;;;;7.15;3.40;;;;;;;22.45;67.07;99674.88;7713209;32;40916;-79
2022/07/05 14:04:48;;;;;;;5.30;2.10;;;;;;;22.54;66.43;99666.37;7713066;32;38686;-77
2022/07/05 14:09:04;;;;;;;5.28;2.62;;;;;;;22.34;65.64;99663.47;7713174;32;36885;-79
2022/07/05 14:13:22;;;;;;;2.87;2.00;;;;;;;22.69;65.46;99662.81;7713068;32;40041;-78
2022/07/05 14:17:38;;;;;;;2.67;1.62;;;;;;;23.01;64.22;99658.09;7713090;32;40839;-75
2022/07/05 14:21:54;;;;;;;2.92;1.77;;;;;;;22.02;67.65;99656.97;7712907;32;37842;-74
2022/07/05 14:26:11;;;;;;;3.53;1.83;;;;;;;21.95;67.63;99657.56;7712959;32;37638;-73
2022/07/05 14:30:27;;;;;;;3.75;1.90;;;;;;;22.53;65.44;99642.56;7712752;32;39210;-76
2022/07/05 14:34:44;;;;;;;4.65;1.83;;;;;;;22.57;65.86;99632.31;7713277;32;37760;-75
2022/07/05 14:39:00;;;;;;;2.50;1.75;;;;;;;22.79;65.33;99633.69;7712899;32;37874;-75
2022/07/05 14:43:17;;;;;;;3.40;1.90;;;;;;;22.60;64.93;99628.84;7712670;32;36650;-75
2022/07/05 14:47:34;;;;;;;3.85;1.85;;;;;;;22.94;65.05;99629.28;7712798;32;39320;-75
2022/07/05 14:51:50;;;;;;;3.08;2.10;;;;;;;22.72;64.43;99620.44;7712595;32;39948;-75
2022/07/05 14:56:06;;;;;;;2.85;2.20;;;;;;;23.38;64.60;99618.84;7712519;32;37899;-74
2022/07/05 15:00:22;;;;;;;2.80;2.10;;;;;;;23.48;63.69;99617.50;7712576;32;36902;-74
2022/07/05 15:04:38;;;;;;;5.32;2.10;;;;;;;24.16;63.97;99610.59;7712476;32;39283;-74
2022/07/05 15:08:54;;;;;;;3.10;1.80;;;;;;;24.77;60.81;99612.91;7711950;32;39988;-75
2022/07/05 15:13:14;;;;;;;4.70;2.25;;;;;;;24.18;59.85;99610.22;7712462;32;38004;-75
2022/07/05 15:17:33;;;;;;;3.00;1.92;;;;;;;24.80;60.12;99601.00;7712395;32;36947;-75
2022/07/05 15:21:49;;;;;;;2.40;1.80;;;;;;;24.82;61.53;99602.25;7712410;32;39084;-75
2022/07/05 15:26:06;;;;;;;3.62;2.10;;;;;;;24.92;58.54;99598.03;7712086;32;40828;-75
2022/07/05 15:30:22;;;;;;;5.28;2.40;;;;;;;25.07;59.34;99593.47;7712482;32;35695;-75
2022/07/05 15:34:39;;;;;;;2.35;1.80;;;;;;;25.12;59.09;99598.75;7712236;32;36850;-74
2022/07/05 15:38:55;;;;;;;4.25;2.20;;;;;;;24.95;57.63;99588.91;7712313;32;39186;-74
2022/07/05 15:43:14;;;;;;;2.72;2.20;;;;;;;25.26;58.63;99587.03;7712033;32;40799;-74
2022/07/05 15:47:31;;;;;;;3.55;2.00;;;;;;;25.67;57.71;99579.63;7711881;32;38864;-75
2022/07/05 15:51:46;;;;;;;3.95;2.20;;;;;;;25.56;56.60;99577.88;7681518;32;36907;-75
2022/07/05 15:56:03;;;;;;;3.30;2.40;;;;;;;25.02;58.62;99577.88;7684592;32;40156;-75
2022/07/05 16:00:19;;;;;;;3.80;2.33;;;;;;;24.90;58.58;99573.31;7684379;32;40554;-75
2022/07/05 16:04:36;;;;;;;3.37;2.30;;;;;;;25.22;57.98;99561.03;7684594;32;37939;-74
2022/07/05 16:08:52;;;;;;;3.58;2.60;;;;;;;24.93;57.79;99568.97;7685049;32;37615;-74
2022/07/05 16:13:07;;;;;;;3.65;2.55;;;;;;;24.63;57.96;99561.34;7684440;32;39876;-75
2022/07/05 16:17:23;;;;;;;6.25;2.60;;;;;;;24.40;60.73;99560.50;7683928;32;40093;-75
2022/07/05 16:21:39;;;;;;;4.80;2.87;;;;;;;24.36;59.34;99563.22;7684038;32;37987;-74
2022/07/05 16:25:57;;;;;;;3.95;2.45;;;;;;;24.17;60.25;99555.72;7684508;32;37036;-74
2022/07/05 16:30:13;;;;;;;4.18;2.87;;;;;;;23.76;60.41;99553.28;7684316;32;39490;-74
2022/07/05 16:34:29;;;;;;;6.28;2.30;;;;;;;24.12;60.27;99556.81;7684473;32;40685;-74
2022/07/05 16:38:45;;;;;;;4.20;2.30;;;;;;;24.19;58.88;99548.59;7684559;32;38610;-74
2022/07/05 16:43:01;;;;;;;3.53;2.28;;;;;;;24.11;59.50;99551.59;7683956;32;37546;-74
2022/07/05 16:47:18;;;;;;;4.10;2.28;;;;;;;24.08;59.59;99549.59;7684237;32;40170;-74
2022/07/05 16:51:34;;;;;;;3.67;1.92;;;;;;;23.85;61.00;99555.88;7683888;32;40146;-74
2022/07/05 16:55:50;;;;;;;4.68;2.58;;;;;;;23.97;59.55;99552.97;7684073;32;38132;-74
2022/07/05 17:00:07;;;;;;;5.03;2.60;;;;;;;23.10;63.83;99560.63;7684084;32;37756;-73
2022/07/05 17:04:23;;;;;;;2.83;2.33;;;;;;;23.10;64.29;99555.06;7683364;32;39016;-74
2022/07/05 17:08:41;;;;;;;4.30;2.60;;;;;;;22.95;64.06;99558.63;7683948;32;39884;-73
2022/07/05 17:12:59;;;;;;;5.85;3.00;;;;;;;22.96;65.08;99560.25;7683545;32;37077;-74
2022/07/05 17:17:15;;;;;;;3.33;2.40;;;;;;;22.79;65.54;99556.69;7683712;32;37730;-73
2022/07/05 17:21:34;;;;;;;6.30;2.70;;;;;;;22.59;66.15;99553.00;7683523;32;39984;-74
2022/07/05 17:25:50;;;;;;;4.20;3.00;;;;;;;22.41;67.48;99557.31;7682629;32;39429;-74
2022/07/05 17:30:06;;;;;;;5.12;2.50;;;;;;;22.53;67.39;99564.78;7683071;32;38613;-73
2022/07/05 17:34:23;;;;;;;3.10;2.50;;;;;;;22.08;68.50;99567.53;7682789;32;36906;-74
2022/07/05 17:38:40;;;;;;;5.50;3.25;;;;;;;21.90;69.21;99582.87;7683435;32;39893;-73
2022/07/05 17:42:56;;;;;;;4.75;2.95;;;;;;;22.06;68.36;99578.19;7682561;32;40027;-73
2022/07/05 17:47:12;;;;;;;4.20;3.05;;;;;;;22.20;68.02;99588.09;7682845;32;37874;-73
2022/07/05 17:51:29;;;;;;;5.45;3.00;;;;;;;22.12;68.14;99598.97;7682731;32;37710;-74
2022/07/05 17:56:05;;;;;;;4.18;2.92;;;;;;;22.03;68.14;99609.44;7682773;32;39491;-77
2022/07/05 18:00:21;;;;;;;6.22;3.20;;;;;;;22.25;67.48;99607.22;7681862;32;39892;-74
2022/07/05 18:04:37;;;;;;;7.32;3.00;;;;;;;22.40;67.06;99606.50;7682821;32;37629;-74
2022/07/05 18:08:53;;;;;;;5.53;3.30;;;;;;;21.69;69.44;99622.72;7682919;32;36791;-74
2022/07/05 18:13:16;;;;;;;4.22;3.22;;;;;;;21.87;68.75;99616.88;7682850;32;40047;-74
2022/07/05 18:17:33;;;;;;;6.07;2.97;;;;;;;21.72;68.96;99622.00;7682668;32;39792;-74
2022/07/05 18:21:50;;;;;;;5.07;3.10;;;;;;;22.03;68.21;99620.53;7682583;32;37952;-74
2022/07/05 18:26:06;;;;;;;4.68;3.05;;;;;;;21.98;68.37;99620.78;7682415;32;36830;-74
2022/07/05 18:30:22;;;;;;;4.20;2.85;;;;;;;22.13;67.79;99608.91;7682146;32;39977;-74
2022/07/05 18:34:38;;;;;;;6.15;3.08;;;;;;;22.01;67.82;99611.75;7682182;32;39848;-74
2022/07/05 18:38:54;;;;;;;4.60;3.20;;;;;;;22.08;67.18;99611.94;7682153;32;38654;-74
2022/07/05 18:43:15;;;;;;;4.12;2.62;;;;;;;22.10;67.23;99603.28;7684653;32;36571;-74
2022/07/05 18:47:31;;;;;;;3.97;2.70;;;;;;;21.68;68.77;99604.47;7708942;32;39714;-74
2022/07/05 18:51:47;;;;;;;5.53;2.53;;;;;;;21.86;67.75;99593.09;7712611;32;40561;-73
2022/07/05 18:56:04;;;;;;;4.00;3.08;;;;;;;21.62;68.65;99599.50;7700894;32;37982;-73
2022/07/05 19:00:37;;;;;;;4.97;2.72;;;;;;;21.80;68.24;99594.47;7685899;32;36662;-73
2022/07/05 19:04:53;;;;;;;4.53;2.67;;;;;;;21.99;67.69;99591.88;7685567;32;39194;-73
2022/07/05 19:13:47;;;;;;;5.40;2.67;;;;;;;22.10;67.30;99583.84;7686174;32;38572;-77
2022/07/05 19:18:04;;;;;;;3.97;2.62;;;;;;;21.87;66.75;99578.03;7685773;32;37097;-77
2022/07/05 19:22:22;;;;;;;8.80;2.60;;;;;;;21.67;67.02;99585.41;7714269;32;40137;-74
2022/07/05 19:26:38;;;;;;;4.85;3.10;;;;;;;21.93;66.52;99585.75;7701944;32;39992;-72
2022/07/05 19:30:54;;;;;;;5.35;2.90;;;;;;;21.44;68.06;99585.06;7693911;32;37985;-73
2022/07/05 19:35:10;;;;;;;4.93;3.20;;;;;;;21.44;68.55;99593.38;7685541;32;37016;-72
2022/07/05 19:39:27;;;;;;;3.33;2.67;;;;;;;21.83;67.44;99593.78;7685445;32;40141;-73
2022/07/05 19:43:43;;;;;;;4.93;2.65;;;;;;;21.74;67.67;99596.69;7696288;32;40771;-74
2022/07/05 19:47:59;;;;;;;5.45;3.33;;;;;;;21.79;67.17;99581.78;7711855;32;38556;-75
2022/07/05 19:52:15;;;;;;;6.75;2.92;;;;;;;21.79;67.45;99584.56;7711849;32;37609;-75
2022/07/05 19:56:31;;;;;;;3.67;2.58;;;;;;;21.53;67.96;99586.59;7711905;32;39797;-75
2022/07/05 20:00:50;;;;;;;4.57;3.15;;;;;;;21.63;67.43;99590.84;7711136;32;40825;-74
2022/07/05 20:05:06;;;;;;;6.40;3.28;;;;;;;21.69;67.12;99586.66;7685173;32;37647;-74
2022/07/05 20:09:23;;;;;;;3.33;2.47;;;;;;;21.78;66.87;99586.50;7686196;32;36959;-74
2022/07/05 20:13:39;;;;;;;3.50;2.60;;;;;;;21.57;67.54;99583.91;7685271;32;39193;-74
2022/07/05 20:17:55;;;;;;;6.45;3.85;;;;;;;21.96;66.19;99589.81;7685058;32;41186;-75
2022/07/05 20:22:11;;;;;;;5.35;3.65;;;;;;;21.57;67.37;99597.78;7685008;32;38452;-75
2022/07/05 20:26:27;;;;;;;4.12;3.15;;;;;;;21.57;67.16;99581.13;7696186;32;37446;-75